createdAt,value
2019-02-17T00:01:27.133Z,98219.20
2019-02-17T00:04:34.730Z,98213.73
2019-02-17T00:07:44.736Z,98209.57
2019-02-17T00:10:54.378Z,98210.13
2019-02-17T00:14:01.670Z,98208.80
2019-02-17T00:17:09.190Z,98211.47
2019-02-17T00:20:16.634Z,98208.00
2019-02-17T00:23:26.857Z,98213.41
2019-02-17T00:26:34.694Z,98220.59
2019-02-17T00:29:42.152Z,98208.52
2019-02-17T00:32:49.847Z,98211.77
2019-02-17T00:35:57.419Z,98209.02
2019-02-17T00:39:05.773Z,98216.08
2019-02-17T00:42:16.303Z,98224.61
2019-02-17T00:45:23.964Z,98222.92
2019-02-17T00:48:34.339Z,98219.14
2019-02-17T00:51:43.724Z,98220.87
2019-02-17T00:54:51.020Z,98213.20
2019-02-17T00:57:58.534Z,98219.95
2019-02-17T01:01:06.142Z,98218.73
2019-02-17T01:04:13.671Z,98216.62
2019-02-17T01:07:21.129Z,98216.52
2019-02-17T01:10:29.689Z,98217.00
2019-02-17T01:13:38.132Z,98218.23
2019-02-17T01:16:56.196Z,98223.73
2019-02-17T01:20:07.207Z,98221.59
2019-02-17T01:23:14.656Z,98214.83
2019-02-17T01:26:22.647Z,98220.80
2019-02-17T01:29:31.146Z,98216.97
2019-02-17T01:32:39.295Z,98215.28
2019-02-17T01:35:46.781Z,98217.37
2019-02-17T01:38:54.286Z,98216.05
2019-02-17T01:42:01.715Z,98213.41
2019-02-17T01:45:10.297Z,98212.66
2019-02-17T01:48:17.972Z,98204.78
2019-02-17T01:51:28.069Z,98204.95
2019-02-17T01:54:35.774Z,98199.51
2019-02-17T01:57:44.402Z,98199.41
2019-02-17T02:00:52.778Z,98200.31
2019-02-17T02:04:01.721Z,98194.80
2019-02-17T02:07:09.361Z,98193.92
2019-02-17T02:10:17.714Z,98190.88
2019-02-17T02:13:27.461Z,98192.56
2019-02-17T02:16:35.512Z,98192.97
2019-02-17T02:19:43.003Z,98187.48
2019-02-17T02:22:50.591Z,98191.64
2019-02-17T02:25:58.007Z,98181.59
2019-02-17T02:29:07.249Z,98181.13
2019-02-17T02:32:15.478Z,98180.25
2019-02-17T02:35:23.231Z,98175.62
2019-02-17T02:38:32.341Z,98176.84
2019-02-17T02:41:40.764Z,98165.02
2019-02-17T02:44:49.015Z,98175.25
2019-02-17T02:47:57.310Z,98171.91
2019-02-17T02:51:04.748Z,98174.07
2019-02-17T02:54:12.230Z,98176.16
2019-02-17T02:57:19.582Z,98174.44
2019-02-17T03:00:27.550Z,98173.20
2019-02-17T03:03:36.118Z,98166.83
2019-02-17T03:06:51.093Z,98160.05
2019-02-17T03:10:06.331Z,98155.39
2019-02-17T03:13:24.049Z,98167.58
2019-02-17T03:16:37.432Z,98165.50
2019-02-17T03:19:46.138Z,98175.16
2019-02-17T03:22:53.727Z,98176.30
2019-02-17T03:26:01.244Z,98175.84
2019-02-17T03:29:09.008Z,98172.49
2019-02-17T03:32:16.405Z,98172.88
2019-02-17T03:35:24.048Z,98169.97
2019-02-17T03:38:32.217Z,98167.86
2019-02-17T03:41:39.779Z,98168.16
2019-02-17T03:44:48.054Z,98169.05
2019-02-17T03:47:56.355Z,98171.49
2019-02-17T03:51:05.078Z,98169.41
2019-02-17T03:54:13.467Z,98171.51
2019-02-17T03:57:21.838Z,98168.41
2019-02-17T04:00:32.281Z,98166.34
2019-02-17T04:03:40.744Z,98164.12
2019-02-17T04:06:49.109Z,98167.47
2019-02-17T04:09:59.030Z,98161.98
2019-02-17T04:13:07.411Z,98164.52
2019-02-17T04:16:15.311Z,98161.63
2019-02-17T04:19:22.825Z,98162.84
2019-02-17T04:22:30.417Z,98167.92
2019-02-17T04:25:37.820Z,98166.59
2019-02-17T04:28:45.337Z,98165.24
2019-02-17T04:31:53.432Z,98162.31
2019-02-17T04:35:01.994Z,98153.50
2019-02-17T04:38:10.330Z,98157.26
2019-02-17T04:41:17.903Z,98156.86
2019-02-17T04:44:28.409Z,98155.98
2019-02-17T04:47:36.008Z,98154.77
2019-02-17T04:50:45.347Z,98148.78
2019-02-17T04:53:54.160Z,98145.40
2019-02-17T04:57:02.238Z,98150.91
2019-02-17T05:00:12.725Z,98142.94
2019-02-17T05:03:20.184Z,98148.75
2019-02-17T05:06:30.479Z,98144.52
2019-02-17T05:09:37.958Z,98143.70
2019-02-17T05:12:45.484Z,98142.38
2019-02-17T05:15:53.042Z,98144.06
2019-02-17T05:19:00.480Z,98142.05
2019-02-17T05:22:08.157Z,98144.91
2019-02-17T05:25:15.544Z,98148.75
2019-02-17T05:28:23.009Z,98144.02
2019-02-17T05:31:32.111Z,98143.57
2019-02-17T05:34:39.887Z,98142.67
2019-02-17T05:37:47.430Z,98141.45
2019-02-17T05:40:54.912Z,98148.67
2019-02-17T05:44:02.604Z,98152.78
2019-02-17T05:47:10.854Z,98157.91
2019-02-17T05:50:20.676Z,98150.27
2019-02-17T05:53:29.523Z,98141.91
2019-02-17T05:56:37.553Z,98148.16
2019-02-17T05:59:45.183Z,98154.55
2019-02-17T06:02:52.722Z,98160.73
2019-02-17T06:06:00.172Z,98159.92
2019-02-17T06:09:09.094Z,98159.55
2019-02-17T06:12:18.653Z,98162.38
2019-02-17T06:15:26.880Z,98166.53
2019-02-17T06:18:34.230Z,98168.72
2019-02-17T06:21:41.846Z,98166.11
2019-02-17T06:24:49.301Z,98163.48
2019-02-17T06:27:57.561Z,98160.62
2019-02-17T06:31:13.940Z,98163.57
2019-02-17T06:34:14.951Z,98166.61
2019-02-17T06:37:22.822Z,98169.52
2019-02-17T06:40:31.094Z,98167.44
2019-02-17T06:43:38.520Z,98170.89
2019-02-17T06:46:50.530Z,98171.74
2019-02-17T06:49:58.059Z,98173.48
2019-02-17T06:53:05.466Z,98161.77
2019-02-17T06:56:27.778Z,98170.22
2019-02-17T06:59:35.392Z,98165.20
2019-02-17T07:02:42.931Z,98169.52
2019-02-17T07:06:11.233Z,98176.34
2019-02-17T07:09:18.724Z,98179.34
2019-02-17T07:12:29.210Z,98168.91
2019-02-17T07:15:36.736Z,98177.02
2019-02-17T07:18:44.631Z,98173.76
2019-02-17T07:21:52.128Z,98167.88
2019-02-17T07:24:59.679Z,98166.66
2019-02-17T07:28:08.889Z,98170.98
2019-02-17T07:31:16.416Z,98166.88
2019-02-17T07:34:23.913Z,98166.43
2019-02-17T07:37:33.941Z,98166.89
2019-02-17T07:40:41.608Z,98159.86
2019-02-17T07:43:49.287Z,98158.63
2019-02-17T07:46:56.736Z,98160.77
2019-02-17T07:50:04.722Z,98155.75
2019-02-17T07:53:14.362Z,98158.73
2019-02-17T07:56:22.659Z,98159.22
2019-02-17T07:59:30.802Z,98155.08
2019-02-17T08:02:41.016Z,98153.84
2019-02-17T08:05:49.009Z,98156.01
2019-02-17T08:08:59.267Z,98154.78
2019-02-17T08:12:07.880Z,98161.16
2019-02-17T08:15:15.591Z,98151.08
2019-02-17T08:18:23.065Z,98142.66
2019-02-17T08:21:34.722Z,98136.83
2019-02-17T08:24:42.300Z,98138.10
2019-02-17T08:27:50.815Z,98138.94
2019-02-17T08:30:59.259Z,98138.55
2019-02-17T08:34:07.748Z,98144.90
2019-02-17T08:37:16.299Z,98140.26
2019-02-17T08:40:26.693Z,98134.33
2019-02-17T08:43:34.288Z,98129.25
2019-02-17T08:46:41.861Z,98128.80
2019-02-17T08:49:49.477Z,98124.16
2019-02-17T08:52:57.042Z,98131.30
2019-02-17T08:56:04.626Z,98136.34
2019-02-17T08:59:12.448Z,98129.55
2019-02-17T09:02:19.973Z,98136.70
2019-02-17T09:05:29.747Z,98131.98
2019-02-17T09:08:40.812Z,98131.50
2019-02-17T09:11:48.241Z,98126.69
2019-02-17T09:14:56.125Z,98125.14
2019-02-17T09:18:03.459Z,98124.44
2019-02-17T09:21:12.356Z,98123.96
2019-02-17T09:24:21.017Z,98128.11
2019-02-17T09:27:29.686Z,98126.28
2019-02-17T09:30:37.862Z,98119.82
2019-02-17T09:33:45.393Z,98121.00
2019-02-17T09:36:53.055Z,98124.81
2019-02-17T09:40:01.465Z,98119.52
2019-02-17T09:43:10.312Z,98114.19
2019-02-17T09:46:17.937Z,98114.72
2019-02-17T09:49:25.772Z,98117.84
2019-02-17T09:52:34.165Z,98113.68
2019-02-17T09:55:46.212Z,98108.01
2019-02-17T09:58:53.807Z,98108.30
2019-02-17T10:02:01.259Z,98106.46
2019-02-17T10:05:09.583Z,98106.42
2019-02-17T10:08:18.921Z,98107.09
2019-02-17T10:11:30.518Z,98107.34
2019-02-17T10:14:39.656Z,98105.33
2019-02-17T10:17:50.772Z,98102.67
2019-02-17T10:20:59.671Z,98102.90
2019-02-17T10:24:07.274Z,98103.08
2019-02-17T10:27:15.173Z,98105.44
2019-02-17T10:30:22.819Z,98102.44
2019-02-17T10:33:31.609Z,98097.94
2019-02-17T10:36:40.062Z,98094.64
2019-02-17T10:39:47.615Z,98096.52
2019-02-17T10:42:55.411Z,98088.62
2019-02-17T10:46:06.023Z,98085.00
2019-02-17T10:49:13.480Z,98083.30
2019-02-17T10:52:21.111Z,98081.22
2019-02-17T10:55:31.692Z,98083.66
2019-02-17T10:58:39.398Z,98076.51
2019-02-17T11:01:47.011Z,98068.36
2019-02-17T11:04:54.829Z,98064.60
2019-02-17T11:08:02.886Z,98056.64
2019-02-17T11:11:11.703Z,98055.88
2019-02-17T11:14:20.957Z,98044.26
2019-02-17T11:17:30.080Z,98044.19
2019-02-17T11:20:38.649Z,98042.43
2019-02-17T11:23:48.278Z,98038.95
2019-02-17T11:26:56.300Z,98040.84
2019-02-17T11:30:05.401Z,98034.18
2019-02-17T11:33:17.070Z,98030.29
2019-02-17T11:36:27.543Z,98024.84
2019-02-17T11:39:35.392Z,98023.49
2019-02-17T11:42:42.901Z,98012.66
2019-02-17T11:45:50.434Z,98013.56
2019-02-17T11:49:02.155Z,98016.08
2019-02-17T11:52:10.395Z,98019.30
2019-02-17T11:55:18.553Z,98014.64
2019-02-17T11:58:26.666Z,98007.22
2019-02-17T12:01:37.421Z,98005.30
2019-02-17T12:04:46.224Z,97991.67
2019-02-17T12:07:54.713Z,97990.59
2019-02-17T12:11:03.048Z,97998.20
2019-02-17T12:14:12.498Z,97994.48
2019-02-17T12:17:20.895Z,97994.23
2019-02-17T12:21:04.523Z,97989.57
2019-02-17T12:24:24.160Z,97989.42
2019-02-17T12:27:42.620Z,97981.81
2019-02-17T12:30:52.521Z,97979.56
2019-02-17T12:34:01.088Z,97978.88
2019-02-17T12:37:09.446Z,97973.63
2019-02-17T12:40:17.576Z,97972.98
2019-02-17T12:43:27.400Z,97970.57
2019-02-17T12:46:34.895Z,97963.14
2019-02-17T12:49:43.881Z,97959.86
2019-02-17T12:52:51.500Z,97965.75
2019-02-17T12:55:59.072Z,97963.98
2019-02-17T12:59:06.829Z,97963.83
2019-02-17T13:02:15.877Z,97955.30
2019-02-17T13:05:24.478Z,97957.50
2019-02-17T13:08:32.609Z,97956.30
2019-02-17T13:11:40.174Z,97949.22
2019-02-17T13:14:47.532Z,97948.60
2019-02-17T13:17:55.285Z,97952.34
2019-02-17T13:21:02.823Z,97946.71
2019-02-17T13:24:10.460Z,97945.50
2019-02-17T13:27:18.004Z,97941.69
2019-02-17T13:30:25.721Z,97937.44
2019-02-17T13:33:39.298Z,97934.98
2019-02-17T13:36:43.196Z,97933.60
2019-02-17T13:39:50.685Z,97933.30
2019-02-17T13:42:58.255Z,97925.45
2019-02-17T13:46:05.667Z,97926.55
2019-02-17T13:49:13.147Z,97926.36
2019-02-17T13:52:24.175Z,97926.31
2019-02-17T13:55:32.794Z,97926.69
2019-02-17T13:58:43.794Z,97923.52
2019-02-17T14:01:51.297Z,97920.73
2019-02-17T14:05:02.290Z,97920.11
2019-02-17T14:08:09.776Z,97923.58
2019-02-17T14:11:17.383Z,97920.73
2019-02-17T14:14:25.034Z,97922.75
2019-02-17T14:17:33.456Z,97916.81
2019-02-17T14:20:42.168Z,97910.13
2019-02-17T14:23:50.043Z,97901.13
2019-02-17T14:26:58.710Z,97909.31
2019-02-17T14:30:08.827Z,97902.59
2019-02-17T14:33:16.356Z,97898.71
2019-02-17T14:36:24.085Z,97906.91
2019-02-17T14:39:31.601Z,97909.11
2019-02-17T14:42:39.325Z,97906.16
2019-02-17T14:45:47.878Z,97899.64
2019-02-17T14:48:56.229Z,97901.78
2019-02-17T14:52:04.711Z,97892.64
2019-02-17T14:55:13.881Z,97891.80
2019-02-17T14:58:22.572Z,97884.91
2019-02-17T15:01:30.733Z,97887.16
2019-02-17T15:04:38.232Z,97876.45
2019-02-17T15:07:46.524Z,97879.62
2019-02-17T15:10:55.128Z,97874.08
2019-02-17T15:14:04.310Z,97871.93
2019-02-17T15:17:12.201Z,97870.14
2019-02-17T15:20:20.372Z,97871.12
2019-02-17T15:23:30.591Z,97861.67
2019-02-17T15:26:40.009Z,97865.27
2019-02-17T15:29:48.319Z,97860.16
2019-02-17T15:33:03.516Z,97861.05
2019-02-17T15:36:05.494Z,97855.47
2019-02-17T15:39:14.635Z,97860.09
2019-02-17T15:42:22.268Z,97856.89
2019-02-17T15:45:29.880Z,97860.56
2019-02-17T15:48:37.386Z,97859.58
2019-02-17T15:51:45.331Z,97858.13
2019-02-17T15:54:53.212Z,97857.02
2019-02-17T15:58:01.380Z,97856.12
2019-02-17T16:01:09.399Z,97855.83
2019-02-17T16:04:17.023Z,97853.98
2019-02-17T16:07:27.309Z,97853.83
2019-02-17T16:10:34.767Z,97853.61
2019-02-17T16:13:42.872Z,97851.48
2019-02-17T16:16:50.642Z,97855.51
2019-02-17T16:19:58.599Z,97850.24
2019-02-17T16:23:06.991Z,97858.25
2019-02-17T16:26:16.560Z,97857.52
2019-02-17T16:29:25.039Z,97861.13
2019-02-17T16:32:33.446Z,97870.89
2019-02-17T16:35:44.627Z,97871.63
2019-02-17T16:38:51.688Z,97878.31
2019-02-17T16:41:59.385Z,97881.44
2019-02-17T16:45:08.293Z,97883.50
2019-02-17T16:48:16.866Z,97887.88
2019-02-17T16:51:28.840Z,97885.27
2019-02-17T16:54:36.534Z,97877.98
2019-02-17T16:57:44.205Z,97877.81
2019-02-17T17:01:00.646Z,97882.89
2019-02-17T17:04:08.186Z,97886.69
2019-02-17T17:07:15.613Z,97889.14
2019-02-17T17:10:23.310Z,97883.73
2019-02-17T17:13:36.480Z,97888.17
2019-02-17T17:16:44.237Z,97888.74
2019-02-17T17:19:51.693Z,97885.15
2019-02-17T17:23:00.163Z,97884.55
2019-02-17T17:26:08.608Z,97880.63
2019-02-17T17:29:16.245Z,97877.00
2019-02-17T17:32:23.827Z,97877.75
2019-02-17T17:35:32.262Z,97876.88
2019-02-17T17:38:40.346Z,97872.75
2019-02-17T17:41:48.001Z,97874.63
2019-02-17T17:44:55.355Z,97883.03
2019-02-17T17:48:02.851Z,97885.89
2019-02-17T17:51:11.120Z,97880.17
2019-02-17T17:54:19.587Z,97881.36
2019-02-17T17:57:27.278Z,97886.70
2019-02-17T18:00:35.776Z,97888.97
2019-02-17T18:03:43.979Z,97888.80
2019-02-17T18:06:51.471Z,97891.82
2019-02-17T18:09:58.938Z,97892.17
2019-02-17T18:13:06.519Z,97895.91
2019-02-17T18:16:14.127Z,97902.80
2019-02-17T18:19:22.265Z,97904.03
2019-02-17T18:22:29.757Z,97900.46
2019-02-17T18:25:37.279Z,97895.24
2019-02-17T18:28:46.098Z,97892.59
2019-02-17T18:31:53.778Z,97898.95
2019-02-17T18:35:01.107Z,97897.06
2019-02-17T18:38:09.889Z,97894.28
2019-02-17T18:41:17.374Z,97893.10
2019-02-17T18:44:25.102Z,97897.06
2019-02-17T18:47:32.649Z,97898.88
2019-02-17T18:50:40.258Z,97892.70
2019-02-17T18:53:47.764Z,97894.52
2019-02-17T18:56:55.288Z,97898.85
2019-02-17T19:00:02.728Z,97894.78
2019-02-17T19:03:11.052Z,97892.09
2019-02-17T19:06:19.013Z,97899.14
2019-02-17T19:09:29.639Z,97888.63
2019-02-17T19:12:37.069Z,97886.14
2019-02-17T19:15:45.662Z,97884.36
2019-02-17T19:18:53.130Z,97885.45
2019-02-17T19:22:00.612Z,97881.98
2019-02-17T19:25:08.749Z,97879.59
2019-02-17T19:28:16.250Z,97883.66
2019-02-17T19:31:23.712Z,97883.73
2019-02-17T19:34:31.552Z,97883.31
2019-02-17T19:37:39.226Z,97888.32
2019-02-17T19:40:46.819Z,97877.99
2019-02-17T19:43:54.416Z,97876.57
2019-02-17T19:47:02.061Z,97874.46
2019-02-17T19:50:11.120Z,97872.89
2019-02-17T19:53:19.671Z,97868.27
2019-02-17T19:56:27.325Z,97866.49
2019-02-17T19:59:34.970Z,97869.91
2019-02-17T20:03:04.042Z,97876.27
2019-02-17T20:06:13.606Z,97873.38
2019-02-17T20:09:22.256Z,97870.84
2019-02-17T20:12:30.627Z,97872.94
2019-02-17T20:15:38.141Z,97872.34
2019-02-17T20:18:45.520Z,97876.91
2019-02-17T20:21:54.597Z,97867.94
2019-02-17T20:25:02.099Z,97866.26
2019-02-17T20:28:10.630Z,97873.61
2019-02-17T20:31:18.039Z,97869.45
2019-02-17T20:34:26.798Z,97871.61
2019-02-17T20:37:34.485Z,97869.42
2019-02-17T20:40:44.629Z,97860.81
2019-02-17T20:43:52.893Z,97861.11
2019-02-17T20:47:17.533Z,97862.34
2019-02-17T20:50:40.146Z,97859.37
2019-02-17T20:53:52.176Z,97858.13
2019-02-17T20:57:10.034Z,97859.06
2019-02-17T21:00:18.371Z,97860.83
2019-02-17T21:03:29.526Z,97851.91
2019-02-17T21:06:36.984Z,97861.27
2019-02-17T21:09:45.826Z,97863.50
2019-02-17T21:12:55.214Z,97864.86
2019-02-17T21:16:06.737Z,97867.43
2019-02-17T21:19:18.342Z,97855.11
2019-02-17T21:22:29.647Z,97856.03
2019-02-17T21:26:00.761Z,97851.42
2019-02-17T21:29:14.937Z,97849.80
2019-02-17T21:32:27.451Z,97846.06
2019-02-17T21:35:39.683Z,97849.98
2019-02-17T21:38:50.699Z,97841.61
2019-02-17T21:42:00.540Z,97840.80
2019-02-17T21:45:11.134Z,97839.50
2019-02-17T21:48:21.099Z,97839.25
2019-02-17T21:51:31.671Z,97838.36
2019-02-17T21:54:41.243Z,97838.78
2019-02-17T21:58:01.623Z,97838.71
2019-02-17T22:01:20.873Z,97840.08
2019-02-17T22:04:41.262Z,97837.98
2019-02-17T22:07:53.250Z,97837.57
2019-02-17T22:11:15.423Z,97836.98
2019-02-17T22:14:31.051Z,97836.64
2019-02-17T22:17:59.949Z,97835.13
2019-02-17T22:21:11.826Z,97834.79
2019-02-17T22:24:34.075Z,97836.48
2019-02-17T22:27:46.439Z,97836.94
2019-02-17T22:30:58.082Z,97836.95
2019-02-17T22:34:11.142Z,97839.55
2019-02-17T22:37:26.620Z,97837.89
2019-02-17T22:40:41.195Z,97843.86
2019-02-17T22:43:52.233Z,97844.70
2019-02-17T22:47:05.292Z,97848.70
2019-02-17T22:50:18.934Z,97851.83
2019-02-17T22:53:43.152Z,97853.09
2019-02-17T22:56:50.624Z,97849.80
2019-02-17T23:00:03.556Z,97851.97
2019-02-17T23:03:21.253Z,97847.16
2019-02-17T23:06:41.498Z,97848.48
2019-02-17T23:10:09.555Z,97839.66
2019-02-17T23:13:24.322Z,97849.42
2019-02-17T23:16:34.741Z,97851.18
2019-02-17T23:19:45.652Z,97859.21
2019-02-17T23:22:59.516Z,97857.52
2019-02-17T23:26:08.526Z,97857.10
2019-02-17T23:29:18.655Z,97851.19
2019-02-17T23:32:32.131Z,97845.27
2019-02-17T23:35:47.078Z,97854.98
2019-02-17T23:39:05.447Z,97849.91
2019-02-17T23:42:24.633Z,97856.20
2019-02-17T23:45:37.344Z,97850.33
2019-02-17T23:48:46.074Z,97862.17
2019-02-17T23:52:02.367Z,97855.39
2019-02-17T23:55:22.655Z,97862.17
2019-02-17T23:58:31.617Z,97865.09
